sensor_id;sensor_type;location;lat;lon;timestamp;temperature;humidity
24226;DHT22;51462;51.422;5.514;2023-07-20T00:01:24;19.30;99.90
24226;DHT22;51462;51.422;5.514;2023-07-20T00:03:49;19.10;99.90
24226;DHT22;51462;51.422;5.514;2023-07-20T00:06:21;19.00;99.90
24226;DHT22;51462;51.422;5.514;2023-07-20T00:08:46;19.40;99.90
24226;DHT22;51462;51.422;5.514;2023-07-20T00:11:12;19.30;99.90
24226;DHT22;51462;51.422;5.514;2023-07-20T00:13:39;19.10;99.90
24226;DHT22;51462;51.422;5.514;2023-07-20T00:16:05;19.20;99.90
24226;DHT22;51462;51.422;5.514;2023-07-20T00:18:30;19.00;99.90
24226;DHT22;51462;51.422;5.514;2023-07-20T00:20:56;19.00;99.90
24226;DHT22;51462;51.422;5.514;2023-07-20T00:23:22;19.00;99.90
24226;DHT22;51462;51.422;5.514;2023-07-20T00:25:48;18.60;99.90
24226;DHT22;51462;51.422;5.514;2023-07-20T00:28:14;18.70;99.90
24226;DHT22;51462;51.422;5.514;2023-07-20T00:30:40;18.50;99.90
24226;DHT22;51462;51.422;5.514;2023-07-20T00:33:09;18.30;99.90
24226;DHT22;51462;51.422;5.514;2023-07-20T00:35:35;18.10;99.90
24226;DHT22;51462;51.422;5.514;2023-07-20T00:38:01;18.00;99.90
24226;DHT22;51462;51.422;5.514;2023-07-20T00:40:26;18.10;99.90
24226;DHT22;51462;51.422;5.514;2023-07-20T00:42:52;18.10;99.90
24226;DHT22;51462;51.422;5.514;2023-07-20T00:45:18;18.20;99.90
24226;DHT22;51462;51.422;5.514;2023-07-20T00:47:43;18.00;99.90
24226;DHT22;51462;51.422;5.514;2023-07-20T00:50:10;18.10;99.90
24226;DHT22;51462;51.422;5.514;2023-07-20T00:52:37;17.90;99.90
24226;DHT22;51462;51.422;5.514;2023-07-20T00:55:07;17.90;99.90
24226;DHT22;51462;51.422;5.514;2023-07-20T00:57:33;17.90;99.90
24226;DHT22;51462;51.422;5.514;2023-07-20T00:59:59;18.00;99.90
24226;DHT22;51462;51.422;5.514;2023-07-20T01:02:24;17.70;99.90
24226;DHT22;51462;51.422;5.514;2023-07-20T01:04:50;17.60;99.90
24226;DHT22;51462;51.422;5.514;2023-07-20T01:07:25;17.50;99.90
24226;DHT22;51462;51.422;5.514;2023-07-20T01:09:59;17.30;99.90
24226;DHT22;51462;51.422;5.514;2023-07-20T01:12:35;17.40;99.90
24226;DHT22;51462;51.422;5.514;2023-07-20T01:15:01;17.40;99.90
24226;DHT22;51462;51.422;5.514;2023-07-20T01:17:27;17.30;99.90
24226;DHT22;51462;51.422;5.514;2023-07-20T01:19:53;17.40;99.90
24226;DHT22;51462;51.422;5.514;2023-07-20T01:30:45;17.70;99.90
24226;DHT22;51462;51.422;5.514;2023-07-20T01:33:13;17.50;99.90
24226;DHT22;51462;51.422;5.514;2023-07-20T01:35:41;17.30;99.90
24226;DHT22;51462;51.422;5.514;2023-07-20T01:38:10;17.20;99.90
24226;DHT22;51462;51.422;5.514;2023-07-20T01:40:37;17.00;99.90
24226;DHT22;51462;51.422;5.514;2023-07-20T01:43:03;17.20;99.90
24226;DHT22;51462;51.422;5.514;2023-07-20T01:45:28;17.20;99.90
24226;DHT22;51462;51.422;5.514;2023-07-20T01:47:54;17.40;99.90
24226;DHT22;51462;51.422;5.514;2023-07-20T01:50:19;17.40;99.90
24226;DHT22;51462;51.422;5.514;2023-07-20T01:52:45;17.20;99.90
24226;DHT22;51462;51.422;5.514;2023-07-20T01:55:11;16.90;99.90
24226;DHT22;51462;51.422;5.514;2023-07-20T01:57:37;16.90;99.90
24226;DHT22;51462;51.422;5.514;2023-07-20T02:00:03;17.00;99.90
24226;DHT22;51462;51.422;5.514;2023-07-20T02:02:29;17.00;99.90
24226;DHT22;51462;51.422;5.514;2023-07-20T02:04:54;17.00;99.90
24226;DHT22;51462;51.422;5.514;2023-07-20T02:07:20;17.10;99.90
24226;DHT22;51462;51.422;5.514;2023-07-20T02:09:46;16.90;99.90
24226;DHT22;51462;51.422;5.514;2023-07-20T02:12:11;16.90;99.90
24226;DHT22;51462;51.422;5.514;2023-07-20T02:14:37;16.90;99.90
24226;DHT22;51462;51.422;5.514;2023-07-20T02:17:03;17.00;99.90
24226;DHT22;51462;51.422;5.514;2023-07-20T02:19:30;17.00;99.90
24226;DHT22;51462;51.422;5.514;2023-07-20T02:21:56;16.80;99.90
24226;DHT22;51462;51.422;5.514;2023-07-20T02:24:21;16.90;99.90
24226;DHT22;51462;51.422;5.514;2023-07-20T02:26:47;17.00;99.90
24226;DHT22;51462;51.422;5.514;2023-07-20T02:29:12;17.10;99.90
24226;DHT22;51462;51.422;5.514;2023-07-20T02:31:38;17.30;99.90
24226;DHT22;51462;51.422;5.514;2023-07-20T02:34:05;17.10;99.90
24226;DHT22;51462;51.422;5.514;2023-07-20T02:36:31;16.80;99.90
24226;DHT22;51462;51.422;5.514;2023-07-20T02:38:58;16.80;99.90
24226;DHT22;51462;51.422;5.514;2023-07-20T02:41:24;16.90;99.90
24226;DHT22;51462;51.422;5.514;2023-07-20T02:43:50;17.10;99.90
24226;DHT22;51462;51.422;5.514;2023-07-20T02:46:15;17.00;99.90
24226;DHT22;51462;51.422;5.514;2023-07-20T02:48:41;17.10;99.90
24226;DHT22;51462;51.422;5.514;2023-07-20T02:51:06;17.10;99.90
24226;DHT22;51462;51.422;5.514;2023-07-20T02:53:33;16.90;99.90
24226;DHT22;51462;51.422;5.514;2023-07-20T02:55:59;17.00;99.90
24226;DHT22;51462;51.422;5.514;2023-07-20T02:58:24;17.20;99.90
24226;DHT22;51462;51.422;5.514;2023-07-20T03:00:50;17.20;99.90
24226;DHT22;51462;51.422;5.514;2023-07-20T03:03:15;17.20;99.90
24226;DHT22;51462;51.422;5.514;2023-07-20T03:05:41;17.10;99.90
24226;DHT22;51462;51.422;5.514;2023-07-20T03:08:07;17.10;99.90
24226;DHT22;51462;51.422;5.514;2023-07-20T03:10:33;16.90;99.90
24226;DHT22;51462;51.422;5.514;2023-07-20T03:13:03;16.90;99.90
24226;DHT22;51462;51.422;5.514;2023-07-20T03:15:29;16.90;99.90
24226;DHT22;51462;51.422;5.514;2023-07-20T03:17:54;17.10;99.90
24226;DHT22;51462;51.422;5.514;2023-07-20T03:20:20;17.20;99.90
24226;DHT22;51462;51.422;5.514;2023-07-20T03:22:46;17.00;99.90
24226;DHT22;51462;51.422;5.514;2023-07-20T03:25:11;17.00;99.90
24226;DHT22;51462;51.422;5.514;2023-07-20T03:27:37;17.00;99.90
24226;DHT22;51462;51.422;5.514;2023-07-20T03:30:03;17.00;99.90
24226;DHT22;51462;51.422;5.514;2023-07-20T03:32:29;17.00;99.90
24226;DHT22;51462;51.422;5.514;2023-07-20T03:34:54;16.90;99.90
24226;DHT22;51462;51.422;5.514;2023-07-20T03:37:20;16.90;99.90
24226;DHT22;51462;51.422;5.514;2023-07-20T03:39:46;16.80;99.90
24226;DHT22;51462;51.422;5.514;2023-07-20T03:42:11;16.80;99.90
24226;DHT22;51462;51.422;5.514;2023-07-20T03:44:37;16.80;99.90
24226;DHT22;51462;51.422;5.514;2023-07-20T03:47:03;16.90;99.90
24226;DHT22;51462;51.422;5.514;2023-07-20T03:49:30;17.30;99.90
24226;DHT22;51462;51.422;5.514;2023-07-20T03:51:55;17.20;99.90
24226;DHT22;51462;51.422;5.514;2023-07-20T03:54:21;17.20;99.90
24226;DHT22;51462;51.422;5.514;2023-07-20T03:56:46;17.30;99.90
24226;DHT22;51462;51.422;5.514;2023-07-20T03:59:12;17.20;99.90
24226;DHT22;51462;51.422;5.514;2023-07-20T04:01:37;17.30;99.90
24226;DHT22;51462;51.422;5.514;2023-07-20T04:04:07;17.10;99.90
24226;DHT22;51462;51.422;5.514;2023-07-20T04:06:33;17.20;99.90
24226;DHT22;51462;51.422;5.514;2023-07-20T04:08:59;17.10;99.90
24226;DHT22;51462;51.422;5.514;2023-07-20T04:11:24;17.00;99.90
24226;DHT22;51462;51.422;5.514;2023-07-20T04:13:50;17.00;99.90
24226;DHT22;51462;51.422;5.514;2023-07-20T04:16:16;17.60;99.90
24226;DHT22;51462;51.422;5.514;2023-07-20T04:18:42;17.40;99.90
24226;DHT22;51462;51.422;5.514;2023-07-20T04:21:08;17.30;99.90
24226;DHT22;51462;51.422;5.514;2023-07-20T04:23:34;17.10;99.90
24226;DHT22;51462;51.422;5.514;2023-07-20T04:26:01;17.00;99.90
24226;DHT22;51462;51.422;5.514;2023-07-20T04:28:27;17.40;99.90
24226;DHT22;51462;51.422;5.514;2023-07-20T04:30:52;17.50;99.90
24226;DHT22;51462;51.422;5.514;2023-07-20T04:33:18;17.20;99.90
24226;DHT22;51462;51.422;5.514;2023-07-20T04:35:49;17.10;99.90
24226;DHT22;51462;51.422;5.514;2023-07-20T04:38:15;16.90;99.90
24226;DHT22;51462;51.422;5.514;2023-07-20T04:40:44;16.90;99.90
24226;DHT22;51462;51.422;5.514;2023-07-20T04:43:10;17.00;99.90
24226;DHT22;51462;51.422;5.514;2023-07-20T04:45:35;17.00;99.90
24226;DHT22;51462;51.422;5.514;2023-07-20T04:48:01;16.90;99.90
24226;DHT22;51462;51.422;5.514;2023-07-20T04:50:26;17.00;99.90
24226;DHT22;51462;51.422;5.514;2023-07-20T04:52:52;16.90;99.90
24226;DHT22;51462;51.422;5.514;2023-07-20T04:55:18;16.80;99.90
24226;DHT22;51462;51.422;5.514;2023-07-20T04:57:44;16.80;99.90
24226;DHT22;51462;51.422;5.514;2023-07-20T05:00:10;16.90;99.90
24226;DHT22;51462;51.422;5.514;2023-07-20T05:02:40;17.20;99.90
24226;DHT22;51462;51.422;5.514;2023-07-20T05:05:06;16.90;99.90
24226;DHT22;51462;51.422;5.514;2023-07-20T05:07:32;16.80;99.90
24226;DHT22;51462;51.422;5.514;2023-07-20T05:09:57;16.80;99.90
24226;DHT22;51462;51.422;5.514;2023-07-20T05:12:23;16.70;99.90
24226;DHT22;51462;51.422;5.514;2023-07-20T05:14:49;17.20;99.90
24226;DHT22;51462;51.422;5.514;2023-07-20T05:17:14;17.00;99.90
24226;DHT22;51462;51.422;5.514;2023-07-20T05:19:40;17.10;99.90
24226;DHT22;51462;51.422;5.514;2023-07-20T05:22:06;16.90;99.90
24226;DHT22;51462;51.422;5.514;2023-07-20T05:24:31;17.10;99.90
24226;DHT22;51462;51.422;5.514;2023-07-20T05:26:58;16.90;99.90
24226;DHT22;51462;51.422;5.514;2023-07-20T05:29:24;16.80;99.90
24226;DHT22;51462;51.422;5.514;2023-07-20T05:31:50;16.70;99.90
24226;DHT22;51462;51.422;5.514;2023-07-20T05:34:16;16.70;99.90
24226;DHT22;51462;51.422;5.514;2023-07-20T05:36:42;16.90;99.90
24226;DHT22;51462;51.422;5.514;2023-07-20T05:39:07;17.00;99.90
24226;DHT22;51462;51.422;5.514;2023-07-20T05:41:33;17.00;99.90
24226;DHT22;51462;51.422;5.514;2023-07-20T05:43:58;16.90;99.90
24226;DHT22;51462;51.422;5.514;2023-07-20T05:46:24;17.00;99.90
24226;DHT22;51462;51.422;5.514;2023-07-20T05:48:50;17.10;99.90
24226;DHT22;51462;51.422;5.514;2023-07-20T05:51:15;17.10;99.90
24226;DHT22;51462;51.422;5.514;2023-07-20T05:53:41;17.20;99.90
24226;DHT22;51462;51.422;5.514;2023-07-20T05:56:07;17.10;99.90
24226;DHT22;51462;51.422;5.514;2023-07-20T05:58:36;17.20;99.90
24226;DHT22;51462;51.422;5.514;2023-07-20T06:01:03;17.20;99.90
24226;DHT22;51462;51.422;5.514;2023-07-20T06:03:31;17.30;99.90
24226;DHT22;51462;51.422;5.514;2023-07-20T06:06:00;17.20;99.90
24226;DHT22;51462;51.422;5.514;2023-07-20T06:08:37;17.30;99.90
24226;DHT22;51462;51.422;5.514;2023-07-20T06:11:03;17.20;99.90
24226;DHT22;51462;51.422;5.514;2023-07-20T06:13:28;17.40;99.90
24226;DHT22;51462;51.422;5.514;2023-07-20T06:15:54;17.30;99.90
24226;DHT22;51462;51.422;5.514;2023-07-20T06:18:22;17.20;99.90
24226;DHT22;51462;51.422;5.514;2023-07-20T06:20:51;17.30;99.90
24226;DHT22;51462;51.422;5.514;2023-07-20T06:23:18;17.30;99.90
24226;DHT22;51462;51.422;5.514;2023-07-20T06:25:44;17.50;99.90
24226;DHT22;51462;51.422;5.514;2023-07-20T06:28:09;17.40;99.90
24226;DHT22;51462;51.422;5.514;2023-07-20T06:30:35;17.40;99.90
24226;DHT22;51462;51.422;5.514;2023-07-20T06:33:01;17.60;99.90
24226;DHT22;51462;51.422;5.514;2023-07-20T06:35:26;17.60;99.90
24226;DHT22;51462;51.422;5.514;2023-07-20T06:37:52;17.80;99.90
24226;DHT22;51462;51.422;5.514;2023-07-20T06:40:18;17.70;99.90
24226;DHT22;51462;51.422;5.514;2023-07-20T06:42:44;17.80;99.90
24226;DHT22;51462;51.422;5.514;2023-07-20T06:45:10;17.80;99.90
24226;DHT22;51462;51.422;5.514;2023-07-20T06:47:38;17.70;99.90
24226;DHT22;51462;51.422;5.514;2023-07-20T06:50:06;17.80;99.90
24226;DHT22;51462;51.422;5.514;2023-07-20T06:52:32;17.90;99.90
24226;DHT22;51462;51.422;5.514;2023-07-20T06:54:58;17.90;99.90
24226;DHT22;51462;51.422;5.514;2023-07-20T06:57:23;17.80;99.90
24226;DHT22;51462;51.422;5.514;2023-07-20T06:59:49;17.80;99.90
24226;DHT22;51462;51.422;5.514;2023-07-20T07:02:15;17.90;99.90
24226;DHT22;51462;51.422;5.514;2023-07-20T07:04:41;18.00;99.90
24226;DHT22;51462;51.422;5.514;2023-07-20T07:07:07;18.20;99.90
24226;DHT22;51462;51.422;5.514;2023-07-20T07:09:32;18.40;99.90
24226;DHT22;51462;51.422;5.514;2023-07-20T07:11:58;18.40;99.90
24226;DHT22;51462;51.422;5.514;2023-07-20T07:14:24;18.50;99.90
24226;DHT22;51462;51.422;5.514;2023-07-20T07:16:49;18.60;99.90
24226;DHT22;51462;51.422;5.514;2023-07-20T07:19:15;18.60;99.90
24226;DHT22;51462;51.422;5.514;2023-07-20T07:21:40;18.20;99.90
24226;DHT22;51462;51.422;5.514;2023-07-20T07:24:06;18.20;99.90
24226;DHT22;51462;51.422;5.514;2023-07-20T07:26:33;18.10;99.90
24226;DHT22;51462;51.422;5.514;2023-07-20T07:28:59;18.20;99.90
24226;DHT22;51462;51.422;5.514;2023-07-20T07:31:29;18.30;99.90
24226;DHT22;51462;51.422;5.514;2023-07-20T07:33:55;18.40;99.90
24226;DHT22;51462;51.422;5.514;2023-07-20T07:36:21;18.50;99.90
24226;DHT22;51462;51.422;5.514;2023-07-20T07:38:46;18.50;99.90
24226;DHT22;51462;51.422;5.514;2023-07-20T07:41:13;18.50;99.90
24226;DHT22;51462;51.422;5.514;2023-07-20T07:43:39;18.60;99.90
24226;DHT22;51462;51.422;5.514;2023-07-20T07:46:05;18.70;99.90
24226;DHT22;51462;51.422;5.514;2023-07-20T07:48:30;18.90;99.90
24226;DHT22;51462;51.422;5.514;2023-07-20T07:50:56;19.20;99.90
24226;DHT22;51462;51.422;5.514;2023-07-20T07:53:21;19.30;99.90
24226;DHT22;51462;51.422;5.514;2023-07-20T07:55:48;19.10;99.90
24226;DHT22;51462;51.422;5.514;2023-07-20T07:58:13;19.20;99.90
24226;DHT22;51462;51.422;5.514;2023-07-20T08:00:39;19.40;99.90
24226;DHT22;51462;51.422;5.514;2023-07-20T08:03:06;19.50;99.90
24226;DHT22;51462;51.422;5.514;2023-07-20T08:05:32;19.50;99.90
24226;DHT22;51462;51.422;5.514;2023-07-20T08:07:57;19.50;99.90
24226;DHT22;51462;51.422;5.514;2023-07-20T08:10:23;19.50;99.90
24226;DHT22;51462;51.422;5.514;2023-07-20T08:12:48;19.20;99.90
24226;DHT22;51462;51.422;5.514;2023-07-20T08:15:14;19.30;99.90
24226;DHT22;51462;51.422;5.514;2023-07-20T08:17:41;19.20;99.90
24226;DHT22;51462;51.422;5.514;2023-07-20T08:20:08;19.30;99.90
24226;DHT22;51462;51.422;5.514;2023-07-20T08:22:37;19.30;99.90
24226;DHT22;51462;51.422;5.514;2023-07-20T08:25:04;19.50;99.90
24226;DHT22;51462;51.422;5.514;2023-07-20T08:27:30;19.50;99.90
24226;DHT22;51462;51.422;5.514;2023-07-20T08:29:56;19.50;99.90
24226;DHT22;51462;51.422;5.514;2023-07-20T08:32:21;19.80;99.90
24226;DHT22;51462;51.422;5.514;2023-07-20T08:34:47;20.00;99.90
24226;DHT22;51462;51.422;5.514;2023-07-20T08:37:13;20.00;99.90
24226;DHT22;51462;51.422;5.514;2023-07-20T08:39:38;19.90;99.90
24226;DHT22;51462;51.422;5.514;2023-07-20T08:42:04;19.70;99.90
24226;DHT22;51462;51.422;5.514;2023-07-20T08:44:35;19.70;99.90
24226;DHT22;51462;51.422;5.514;2023-07-20T08:47:02;19.60;99.90
24226;DHT22;51462;51.422;5.514;2023-07-20T08:49:31;19.90;99.90
24226;DHT22;51462;51.422;5.514;2023-07-20T08:51:58;20.00;99.90
24226;DHT22;51462;51.422;5.514;2023-07-20T08:54:26;19.90;99.90
24226;DHT22;51462;51.422;5.514;2023-07-20T08:56:54;19.60;99.90
24226;DHT22;51462;51.422;5.514;2023-07-20T08:59:22;19.70;99.90
24226;DHT22;51462;51.422;5.514;2023-07-20T09:01:49;19.70;99.90
24226;DHT22;51462;51.422;5.514;2023-07-20T09:04:16;19.80;99.90
24226;DHT22;51462;51.422;5.514;2023-07-20T09:06:42;20.10;99.90
24226;DHT22;51462;51.422;5.514;2023-07-20T09:09:07;20.10;99.90
24226;DHT22;51462;51.422;5.514;2023-07-20T09:11:33;20.10;99.90
24226;DHT22;51462;51.422;5.514;2023-07-20T09:14:07;20.00;99.90
24226;DHT22;51462;51.422;5.514;2023-07-20T09:16:59;19.70;99.90
24226;DHT22;51462;51.422;5.514;2023-07-20T09:19:24;19.80;99.90
24226;DHT22;51462;51.422;5.514;2023-07-20T09:21:51;20.00;99.90
24226;DHT22;51462;51.422;5.514;2023-07-20T09:24:20;20.20;99.90
24226;DHT22;51462;51.422;5.514;2023-07-20T09:26:47;20.30;99.90
24226;DHT22;51462;51.422;5.514;2023-07-20T09:29:19;20.30;99.90
24226;DHT22;51462;51.422;5.514;2023-07-20T09:32:04;20.40;99.90
24226;DHT22;51462;51.422;5.514;2023-07-20T09:34:31;20.50;99.90
24226;DHT22;51462;51.422;5.514;2023-07-20T09:36:59;20.70;99.90
24226;DHT22;51462;51.422;5.514;2023-07-20T09:39:26;20.80;99.90
24226;DHT22;51462;51.422;5.514;2023-07-20T09:41:52;21.00;99.90
24226;DHT22;51462;51.422;5.514;2023-07-20T09:44:17;21.10;99.90
24226;DHT22;51462;51.422;5.514;2023-07-20T09:46:47;21.00;99.90
24226;DHT22;51462;51.422;5.514;2023-07-20T09:49:14;20.90;99.90
24226;DHT22;51462;51.422;5.514;2023-07-20T09:51:40;21.10;99.90
24226;DHT22;51462;51.422;5.514;2023-07-20T09:54:07;21.20;99.90
24226;DHT22;51462;51.422;5.514;2023-07-20T09:56:34;21.10;99.90
24226;DHT22;51462;51.422;5.514;2023-07-20T09:59:00;21.00;99.90
24226;DHT22;51462;51.422;5.514;2023-07-20T10:01:26;21.00;99.90
24226;DHT22;51462;51.422;5.514;2023-07-20T10:03:54;21.20;99.90
24226;DHT22;51462;51.422;5.514;2023-07-20T10:06:23;21.30;99.90
24226;DHT22;51462;51.422;5.514;2023-07-20T10:08:53;21.30;99.90
24226;DHT22;51462;51.422;5.514;2023-07-20T10:11:18;21.40;99.90
24226;DHT22;51462;51.422;5.514;2023-07-20T10:13:51;21.50;99.90
24226;DHT22;51462;51.422;5.514;2023-07-20T10:16:39;21.50;99.90
24226;DHT22;51462;51.422;5.514;2023-07-20T10:19:17;21.70;99.90
24226;DHT22;51462;51.422;5.514;2023-07-20T10:21:56;21.70;99.90
24226;DHT22;51462;51.422;5.514;2023-07-20T10:24:23;21.70;99.90
24226;DHT22;51462;51.422;5.514;2023-07-20T10:26:49;21.70;99.90
24226;DHT22;51462;51.422;5.514;2023-07-20T10:29:16;21.70;99.90
24226;DHT22;51462;51.422;5.514;2023-07-20T10:31:42;21.70;99.90
24226;DHT22;51462;51.422;5.514;2023-07-20T10:34:08;21.80;99.90
24226;DHT22;51462;51.422;5.514;2023-07-20T10:36:44;21.70;99.90
24226;DHT22;51462;51.422;5.514;2023-07-20T10:39:24;21.80;99.90
24226;DHT22;51462;51.422;5.514;2023-07-20T10:42:03;22.00;99.90
24226;DHT22;51462;51.422;5.514;2023-07-20T10:44:30;22.20;99.90
24226;DHT22;51462;51.422;5.514;2023-07-20T10:47:03;22.20;99.90
24226;DHT22;51462;51.422;5.514;2023-07-20T10:49:33;22.20;99.90
24226;DHT22;51462;51.422;5.514;2023-07-20T10:52:00;22.20;99.90
24226;DHT22;51462;51.422;5.514;2023-07-20T10:57:14;22.50;99.90
24226;DHT22;51462;51.422;5.514;2023-07-20T10:59:41;22.10;99.90
24226;DHT22;51462;51.422;5.514;2023-07-20T11:02:07;22.30;99.90
24226;DHT22;51462;51.422;5.514;2023-07-20T11:04:41;22.30;99.90
24226;DHT22;51462;51.422;5.514;2023-07-20T11:07:07;22.20;99.90
24226;DHT22;51462;51.422;5.514;2023-07-20T11:09:37;22.10;99.90
24226;DHT22;51462;51.422;5.514;2023-07-20T11:12:14;22.10;99.90
24226;DHT22;51462;51.422;5.514;2023-07-20T11:14:54;22.10;99.90
24226;DHT22;51462;51.422;5.514;2023-07-20T11:17:29;22.10;99.90
24226;DHT22;51462;51.422;5.514;2023-07-20T11:19:59;22.10;99.90
24226;DHT22;51462;51.422;5.514;2023-07-20T11:22:26;22.20;99.90
24226;DHT22;51462;51.422;5.514;2023-07-20T11:24:55;22.40;99.90
24226;DHT22;51462;51.422;5.514;2023-07-20T11:27:21;22.70;99.90
24226;DHT22;51462;51.422;5.514;2023-07-20T11:29:48;22.90;99.90
24226;DHT22;51462;51.422;5.514;2023-07-20T11:32:23;23.10;99.90
24226;DHT22;51462;51.422;5.514;2023-07-20T11:34:49;23.00;99.90
24226;DHT22;51462;51.422;5.514;2023-07-20T11:37:16;22.90;99.90
24226;DHT22;51462;51.422;5.514;2023-07-20T11:39:42;22.80;99.90
24226;DHT22;51462;51.422;5.514;2023-07-20T11:42:08;22.80;99.90
24226;DHT22;51462;51.422;5.514;2023-07-20T11:44:34;22.90;99.90
24226;DHT22;51462;51.422;5.514;2023-07-20T11:47:07;22.60;99.90
24226;DHT22;51462;51.422;5.514;2023-07-20T11:49:40;22.60;99.90
24226;DHT22;51462;51.422;5.514;2023-07-20T11:52:10;22.80;99.90
24226;DHT22;51462;51.422;5.514;2023-07-20T11:54:38;22.80;99.90
24226;DHT22;51462;51.422;5.514;2023-07-20T11:57:04;22.90;99.90
24226;DHT22;51462;51.422;5.514;2023-07-20T11:59:31;23.00;99.90
24226;DHT22;51462;51.422;5.514;2023-07-20T12:01:57;23.10;99.90
24226;DHT22;51462;51.422;5.514;2023-07-20T12:04:23;23.40;99.90
24226;DHT22;51462;51.422;5.514;2023-07-20T12:06:49;23.80;99.90
24226;DHT22;51462;51.422;5.514;2023-07-20T12:09:17;23.70;99.90
24226;DHT22;51462;51.422;5.514;2023-07-20T12:11:44;23.80;99.90
24226;DHT22;51462;51.422;5.514;2023-07-20T12:14:11;23.60;99.90
24226;DHT22;51462;51.422;5.514;2023-07-20T12:16:37;23.60;99.90
24226;DHT22;51462;51.422;5.514;2023-07-20T12:19:10;23.80;99.90
24226;DHT22;51462;51.422;5.514;2023-07-20T12:21:38;24.20;99.90
24226;DHT22;51462;51.422;5.514;2023-07-20T12:24:06;24.00;99.90
24226;DHT22;51462;51.422;5.514;2023-07-20T12:26:33;23.70;99.90
24226;DHT22;51462;51.422;5.514;2023-07-20T12:28:59;23.60;99.90
24226;DHT22;51462;51.422;5.514;2023-07-20T12:31:26;23.80;99.90
24226;DHT22;51462;51.422;5.514;2023-07-20T12:33:53;23.70;99.90
24226;DHT22;51462;51.422;5.514;2023-07-20T12:36:21;23.70;99.90
24226;DHT22;51462;51.422;5.514;2023-07-20T12:38:46;23.20;99.90
24226;DHT22;51462;51.422;5.514;2023-07-20T12:41:13;22.80;99.90
24226;DHT22;51462;51.422;5.514;2023-07-20T12:43:40;22.90;99.90
24226;DHT22;51462;51.422;5.514;2023-07-20T12:46:06;23.10;99.90
24226;DHT22;51462;51.422;5.514;2023-07-20T12:48:31;23.40;99.90
24226;DHT22;51462;51.422;5.514;2023-07-20T12:50:57;23.50;99.90
24226;DHT22;51462;51.422;5.514;2023-07-20T12:53:23;23.50;99.90
24226;DHT22;51462;51.422;5.514;2023-07-20T12:55:49;23.30;99.90
24226;DHT22;51462;51.422;5.514;2023-07-20T12:58:15;23.10;99.90
24226;DHT22;51462;51.422;5.514;2023-07-20T13:00:40;23.00;99.90
24226;DHT22;51462;51.422;5.514;2023-07-20T13:03:07;23.10;99.90
24226;DHT22;51462;51.422;5.514;2023-07-20T13:05:34;22.80;99.90
24226;DHT22;51462;51.422;5.514;2023-07-20T13:08:00;22.70;99.90
24226;DHT22;51462;51.422;5.514;2023-07-20T13:10:25;23.10;99.90
24226;DHT22;51462;51.422;5.514;2023-07-20T13:12:51;23.00;99.90
24226;DHT22;51462;51.422;5.514;2023-07-20T13:15:17;23.00;99.90
24226;DHT22;51462;51.422;5.514;2023-07-20T13:17:44;23.30;99.90
24226;DHT22;51462;51.422;5.514;2023-07-20T13:20:10;23.60;99.90
24226;DHT22;51462;51.422;5.514;2023-07-20T13:22:39;23.80;99.90
24226;DHT22;51462;51.422;5.514;2023-07-20T13:25:05;23.70;99.90
24226;DHT22;51462;51.422;5.514;2023-07-20T13:27:31;23.50;99.90
24226;DHT22;51462;51.422;5.514;2023-07-20T13:29:58;23.80;99.90
24226;DHT22;51462;51.422;5.514;2023-07-20T13:32:26;23.90;99.90
24226;DHT22;51462;51.422;5.514;2023-07-20T13:34:52;23.80;99.90
24226;DHT22;51462;51.422;5.514;2023-07-20T13:37:17;23.90;99.90
24226;DHT22;51462;51.422;5.514;2023-07-20T13:39:43;24.10;99.90
24226;DHT22;51462;51.422;5.514;2023-07-20T13:42:09;24.10;99.90
24226;DHT22;51462;51.422;5.514;2023-07-20T13:44:36;24.30;99.90
24226;DHT22;51462;51.422;5.514;2023-07-20T13:47:03;24.20;99.90
24226;DHT22;51462;51.422;5.514;2023-07-20T13:49:30;24.60;99.90
24226;DHT22;51462;51.422;5.514;2023-07-20T13:51:56;25.00;99.90
24226;DHT22;51462;51.422;5.514;2023-07-20T13:54:23;25.10;99.90
24226;DHT22;51462;51.422;5.514;2023-07-20T13:56:48;25.70;99.90
24226;DHT22;51462;51.422;5.514;2023-07-20T13:59:14;26.20;99.90
24226;DHT22;51462;51.422;5.514;2023-07-20T14:01:39;25.50;99.90
24226;DHT22;51462;51.422;5.514;2023-07-20T14:04:05;25.30;99.90
24226;DHT22;51462;51.422;5.514;2023-07-20T14:06:32;24.80;99.90
24226;DHT22;51462;51.422;5.514;2023-07-20T14:08:59;25.70;99.90
24226;DHT22;51462;51.422;5.514;2023-07-20T14:11:25;26.30;99.90
24226;DHT22;51462;51.422;5.514;2023-07-20T14:13:51;26.20;99.90
24226;DHT22;51462;51.422;5.514;2023-07-20T14:16:19;25.70;99.90
24226;DHT22;51462;51.422;5.514;2023-07-20T14:18:45;26.00;99.90
24226;DHT22;51462;51.422;5.514;2023-07-20T14:21:14;26.50;99.90
24226;DHT22;51462;51.422;5.514;2023-07-20T14:23:40;26.30;99.90
24226;DHT22;51462;51.422;5.514;2023-07-20T14:26:05;26.20;99.90
24226;DHT22;51462;51.422;5.514;2023-07-20T14:28:32;25.80;99.90
24226;DHT22;51462;51.422;5.514;2023-07-20T14:30:58;25.60;99.90
24226;DHT22;51462;51.422;5.514;2023-07-20T14:33:24;25.40;99.90
24226;DHT22;51462;51.422;5.514;2023-07-20T14:35:50;25.10;99.90
24226;DHT22;51462;51.422;5.514;2023-07-20T14:38:15;25.10;99.90
24226;DHT22;51462;51.422;5.514;2023-07-20T14:40:41;25.40;99.90
24226;DHT22;51462;51.422;5.514;2023-07-20T14:43:07;25.70;99.90
24226;DHT22;51462;51.422;5.514;2023-07-20T14:45:32;24.90;99.90
24226;DHT22;51462;51.422;5.514;2023-07-20T14:47:58;24.80;99.90
24226;DHT22;51462;51.422;5.514;2023-07-20T14:50:24;25.10;99.90
24226;DHT22;51462;51.422;5.514;2023-07-20T14:52:50;25.00;99.90
24226;DHT22;51462;51.422;5.514;2023-07-20T14:55:16;25.00;99.90
24226;DHT22;51462;51.422;5.514;2023-07-20T14:57:42;25.20;99.90
24226;DHT22;51462;51.422;5.514;2023-07-20T15:00:08;25.00;99.90
24226;DHT22;51462;51.422;5.514;2023-07-20T15:02:38;25.10;99.90
24226;DHT22;51462;51.422;5.514;2023-07-20T15:05:07;25.30;99.90
24226;DHT22;51462;51.422;5.514;2023-07-20T15:07:33;25.00;99.90
24226;DHT22;51462;51.422;5.514;2023-07-20T15:10:00;25.00;99.90
24226;DHT22;51462;51.422;5.514;2023-07-20T15:12:25;24.80;99.90
24226;DHT22;51462;51.422;5.514;2023-07-20T15:15:04;24.30;99.90
24226;DHT22;51462;51.422;5.514;2023-07-20T15:17:30;24.60;99.90
24226;DHT22;51462;51.422;5.514;2023-07-20T15:19:56;24.90;99.90
24226;DHT22;51462;51.422;5.514;2023-07-20T15:22:21;24.70;99.90
24226;DHT22;51462;51.422;5.514;2023-07-20T15:24:47;24.70;99.90
24226;DHT22;51462;51.422;5.514;2023-07-20T15:27:13;24.40;99.90
24226;DHT22;51462;51.422;5.514;2023-07-20T15:29:38;24.30;99.90
24226;DHT22;51462;51.422;5.514;2023-07-20T15:32:04;24.20;99.90
24226;DHT22;51462;51.422;5.514;2023-07-20T15:34:31;24.10;99.90
24226;DHT22;51462;51.422;5.514;2023-07-20T15:36:57;24.40;99.90
24226;DHT22;51462;51.422;5.514;2023-07-20T15:39:23;24.50;99.90